sensor_id;sensor_type;location;lat;lon;timestamp;pressure;altitude;pressure_sealevel;temperature;humidity
20987;BME280;10652;50.306;8.570;2022-09-09T00:06:16;97443.78;;;17.73;92.26
20987;BME280;10652;50.306;8.570;2022-09-09T00:10:27;97450.53;;;17.77;90.78
20987;BME280;10652;50.306;8.570;2022-09-09T00:14:48;97439.94;;;17.77;89.55
20987;BME280;10652;50.306;8.570;2022-09-09T00:19:05;97431.63;;;17.82;89.68
20987;BME280;10652;50.306;8.570;2022-09-09T00:23:15;97444.53;;;17.87;88.50
20987;BME280;10652;50.306;8.570;2022-09-09T00:27:41;97439.13;;;17.88;87.67
20987;BME280;10652;50.306;8.570;2022-09-09T00:31:46;97437.53;;;17.86;87.02
20987;BME280;10652;50.306;8.570;2022-09-09T00:35:51;97432.75;;;17.80;86.63
20987;BME280;10652;50.306;8.570;2022-09-09T00:39:58;97434.91;;;17.74;86.25
20987;BME280;10652;50.306;8.570;2022-09-09T00:48:13;97437.66;;;17.73;85.47
20987;BME280;10652;50.306;8.570;2022-09-09T00:52:44;97445.75;;;17.71;85.53
20987;BME280;10652;50.306;8.570;2022-09-09T01:01:12;97441.50;;;17.69;86.02
20987;BME280;10652;50.306;8.570;2022-09-09T01:05:34;97436.81;;;17.61;86.17
20987;BME280;10652;50.306;8.570;2022-09-09T01:09:42;97440.00;;;17.54;86.64
20987;BME280;10652;50.306;8.570;2022-09-09T01:13:50;97438.03;;;17.45;87.14
20987;BME280;10652;50.306;8.570;2022-09-09T01:18:04;97432.63;;;17.35;88.06
20987;BME280;10652;50.306;8.570;2022-09-09T01:22:32;97440.53;;;17.24;88.48
20987;BME280;10652;50.306;8.570;2022-09-09T01:26:43;97446.53;;;17.15;89.01
20987;BME280;10652;50.306;8.570;2022-09-09T01:30:58;97438.09;;;17.10;89.65
20987;BME280;10652;50.306;8.570;2022-09-09T01:35:11;97451.31;;;17.10;89.88
20987;BME280;10652;50.306;8.570;2022-09-09T01:39:15;97442.75;;;17.06;90.18
20987;BME280;10652;50.306;8.570;2022-09-09T01:43:22;97454.28;;;17.05;90.87
20987;BME280;10652;50.306;8.570;2022-09-09T01:47:25;97446.47;;;17.04;91.17
20987;BME280;10652;50.306;8.570;2022-09-09T01:51:54;97439.00;;;16.98;91.59
20987;BME280;10652;50.306;8.570;2022-09-09T02:00:46;97435.44;;;16.86;92.67
20987;BME280;10652;50.306;8.570;2022-09-09T02:05:01;97439.91;;;16.85;93.12
20987;BME280;10652;50.306;8.570;2022-09-09T02:09:12;97445.19;;;16.85;93.15
20987;BME280;10652;50.306;8.570;2022-09-09T02:13:20;97443.63;;;16.83;93.49
20987;BME280;10652;50.306;8.570;2022-09-09T02:17:29;97440.75;;;16.86;93.68
20987;BME280;10652;50.306;8.570;2022-09-09T02:21:42;97438.75;;;16.89;93.75
20987;BME280;10652;50.306;8.570;2022-09-09T02:25:45;97437.66;;;16.92;93.94
20987;BME280;10652;50.306;8.570;2022-09-09T02:29:56;97446.19;;;16.96;94.31
20987;BME280;10652;50.306;8.570;2022-09-09T02:34:13;97448.28;;;17.03;94.28
20987;BME280;10652;50.306;8.570;2022-09-09T02:38:17;97443.63;;;17.07;94.21
20987;BME280;10652;50.306;8.570;2022-09-09T02:42:44;97443.38;;;17.10;94.08
20987;BME280;10652;50.306;8.570;2022-09-09T02:51:08;97453.25;;;17.19;94.28
20987;BME280;10652;50.306;8.570;2022-09-09T02:55:41;97444.97;;;17.23;94.31
20987;BME280;10652;50.306;8.570;2022-09-09T02:59:47;97438.63;;;17.26;94.59
20987;BME280;10652;50.306;8.570;2022-09-09T03:03:50;97429.09;;;17.23;95.07
20987;BME280;10652;50.306;8.570;2022-09-09T03:07:52;97432.16;;;17.30;96.34
20987;BME280;10652;50.306;8.570;2022-09-09T03:11:55;97439.44;;;17.26;94.92
20987;BME280;10652;50.306;8.570;2022-09-09T03:15:58;97431.38;;;17.17;94.75
20987;BME280;10652;50.306;8.570;2022-09-09T03:20:05;97428.25;;;17.12;95.14
20987;BME280;10652;50.306;8.570;2022-09-09T03:24:07;97426.44;;;17.12;94.97
20987;BME280;10652;50.306;8.570;2022-09-09T03:28:09;97420.31;;;17.12;95.09
20987;BME280;10652;50.306;8.570;2022-09-09T03:32:13;97422.94;;;17.12;94.79
20987;BME280;10652;50.306;8.570;2022-09-09T03:36:19;97427.03;;;17.16;94.97
20987;BME280;10652;50.306;8.570;2022-09-09T03:40:22;97410.94;;;17.19;94.56
20987;BME280;10652;50.306;8.570;2022-09-09T03:44:24;97434.50;;;17.22;94.31
20987;BME280;10652;50.306;8.570;2022-09-09T03:48:27;97434.41;;;17.23;93.68
20987;BME280;10652;50.306;8.570;2022-09-09T03:52:30;97420.66;;;17.18;93.65
20987;BME280;10652;50.306;8.570;2022-09-09T03:56:34;97435.69;;;17.18;93.62
20987;BME280;10652;50.306;8.570;2022-09-09T04:00:36;97437.72;;;17.14;93.64
20987;BME280;10652;50.306;8.570;2022-09-09T04:04:41;97444.47;;;17.07;94.16
20987;BME280;10652;50.306;8.570;2022-09-09T04:08:43;97450.09;;;17.03;94.46
20987;BME280;10652;50.306;8.570;2022-09-09T04:12:48;97437.31;;;16.97;95.25
20987;BME280;10652;50.306;8.570;2022-09-09T04:16:50;97439.84;;;16.98;95.90
20987;BME280;10652;50.306;8.570;2022-09-09T04:20:53;97432.53;;;17.02;95.19
20987;BME280;10652;50.306;8.570;2022-09-09T04:24:58;97428.78;;;17.04;94.67
20987;BME280;10652;50.306;8.570;2022-09-09T04:29:03;97428.59;;;17.07;94.55
20987;BME280;10652;50.306;8.570;2022-09-09T04:33:06;97419.81;;;17.07;94.11
20987;BME280;10652;50.306;8.570;2022-09-09T04:37:09;97422.94;;;17.12;94.33
20987;BME280;10652;50.306;8.570;2022-09-09T04:41:12;97424.50;;;17.14;94.25
20987;BME280;10652;50.306;8.570;2022-09-09T04:45:17;97418.38;;;17.14;93.68
20987;BME280;10652;50.306;8.570;2022-09-09T04:49:20;97427.25;;;17.13;93.35
20987;BME280;10652;50.306;8.570;2022-09-09T04:53:22;97422.81;;;17.13;93.43
20987;BME280;10652;50.306;8.570;2022-09-09T04:57:25;97430.66;;;17.15;93.09
20987;BME280;10652;50.306;8.570;2022-09-09T05:01:27;97441.97;;;17.17;92.88
20987;BME280;10652;50.306;8.570;2022-09-09T05:05:36;97443.63;;;17.18;92.54
20987;BME280;10652;50.306;8.570;2022-09-09T05:09:38;97442.69;;;17.19;92.34
20987;BME280;10652;50.306;8.570;2022-09-09T05:13:40;97435.34;;;17.22;92.16
20987;BME280;10652;50.306;8.570;2022-09-09T05:17:43;97428.25;;;17.23;91.73
20987;BME280;10652;50.306;8.570;2022-09-09T05:21:45;97444.13;;;17.23;92.02
20987;BME280;10652;50.306;8.570;2022-09-09T05:25:57;97448.81;;;17.19;92.92
20987;BME280;10652;50.306;8.570;2022-09-09T05:30:00;97436.53;;;17.18;93.15
20987;BME280;10652;50.306;8.570;2022-09-09T05:34:03;97451.97;;;17.24;93.24
20987;BME280;10652;50.306;8.570;2022-09-09T05:38:05;97464.84;;;17.29;93.15
20987;BME280;10652;50.306;8.570;2022-09-09T05:42:07;97469.28;;;17.28;93.29
20987;BME280;10652;50.306;8.570;2022-09-09T05:46:11;97480.97;;;17.26;94.04
20987;BME280;10652;50.306;8.570;2022-09-09T05:50:15;97472.28;;;17.24;94.48
20987;BME280;10652;50.306;8.570;2022-09-09T05:54:18;97481.56;;;17.29;94.44
20987;BME280;10652;50.306;8.570;2022-09-09T05:58:24;97483.03;;;17.33;94.19
20987;BME280;10652;50.306;8.570;2022-09-09T06:02:26;97493.28;;;17.38;93.41
20987;BME280;10652;50.306;8.570;2022-09-09T06:06:34;97483.53;;;17.50;92.48
20987;BME280;10652;50.306;8.570;2022-09-09T06:10:48;97474.13;;;17.69;94.71
20987;BME280;10652;50.306;8.570;2022-09-09T06:14:50;97482.34;;;18.22;91.66
20987;BME280;10652;50.306;8.570;2022-09-09T06:18:55;97484.53;;;18.61;85.31
20987;BME280;10652;50.306;8.570;2022-09-09T06:22:59;97483.53;;;18.74;82.45
20987;BME280;10652;50.306;8.570;2022-09-09T06:27:01;97480.16;;;19.67;82.17
20987;BME280;10652;50.306;8.570;2022-09-09T06:31:09;97474.00;;;19.87;76.06
20987;BME280;10652;50.306;8.570;2022-09-09T06:35:12;97479.19;;;19.89;75.38
20987;BME280;10652;50.306;8.570;2022-09-09T06:39:15;97482.78;;;20.09;74.25
20987;BME280;10652;50.306;8.570;2022-09-09T06:43:19;97475.88;;;22.21;69.75
20987;BME280;10652;50.306;8.570;2022-09-09T06:47:24;97469.78;;;22.92;62.65
20987;BME280;10652;50.306;8.570;2022-09-09T06:51:33;97471.69;;;22.08;59.64
20987;BME280;10652;50.306;8.570;2022-09-09T06:55:37;97476.91;;;20.85;64.48
20987;BME280;10652;50.306;8.570;2022-09-09T06:59:39;97484.25;;;20.22;69.75
20987;BME280;10652;50.306;8.570;2022-09-09T07:03:42;97478.00;;;19.82;72.20
20987;BME280;10652;50.306;8.570;2022-09-09T07:07:46;97489.97;;;19.67;74.03
20987;BME280;10652;50.306;8.570;2022-09-09T07:11:52;97496.06;;;19.58;75.52
20987;BME280;10652;50.306;8.570;2022-09-09T07:16:08;97486.78;;;19.52;76.36
20987;BME280;10652;50.306;8.570;2022-09-09T07:20:11;97487.28;;;19.46;76.79
20987;BME280;10652;50.306;8.570;2022-09-09T07:24:14;97486.09;;;19.39;77.07
20987;BME280;10652;50.306;8.570;2022-09-09T07:28:19;97491.78;;;19.34;78.50
20987;BME280;10652;50.306;8.570;2022-09-09T07:32:21;97493.72;;;19.32;77.88
20987;BME280;10652;50.306;8.570;2022-09-09T07:36:26;97497.72;;;19.27;78.50
20987;BME280;10652;50.306;8.570;2022-09-09T07:40:34;97508.97;;;19.19;79.16
20987;BME280;10652;50.306;8.570;2022-09-09T07:44:38;97507.47;;;19.26;79.19
20987;BME280;10652;50.306;8.570;2022-09-09T07:48:46;97506.22;;;19.41;78.97
20987;BME280;10652;50.306;8.570;2022-09-09T07:52:54;97505.44;;;19.62;77.67
20987;BME280;10652;50.306;8.570;2022-09-09T07:56:59;97515.75;;;19.76;76.16
20987;BME280;10652;50.306;8.570;2022-09-09T08:01:16;97522.84;;;19.96;76.22
20987;BME280;10652;50.306;8.570;2022-09-09T08:05:22;97528.34;;;20.04;74.99
20987;BME280;10652;50.306;8.570;2022-09-09T08:09:25;97543.91;;;20.09;74.90
20987;BME280;10652;50.306;8.570;2022-09-09T08:13:41;97535.53;;;20.13;74.26
20987;BME280;10652;50.306;8.570;2022-09-09T08:17:43;97537.69;;;20.19;72.13
20987;BME280;10652;50.306;8.570;2022-09-09T08:21:46;97541.75;;;20.23;72.40
20987;BME280;10652;50.306;8.570;2022-09-09T08:25:48;97545.81;;;20.38;74.15
20987;BME280;10652;50.306;8.570;2022-09-09T08:29:50;97549.16;;;20.71;72.76
20987;BME280;10652;50.306;8.570;2022-09-09T08:33:54;97559.75;;;21.01;71.05
20987;BME280;10652;50.306;8.570;2022-09-09T08:37:56;97548.94;;;20.93;69.86
20987;BME280;10652;50.306;8.570;2022-09-09T08:42:12;97550.56;;;20.75;70.87
20987;BME280;10652;50.306;8.570;2022-09-09T08:46:27;97556.34;;;20.80;70.43
20987;BME280;10652;50.306;8.570;2022-09-09T08:50:36;97559.69;;;20.82;70.35
20987;BME280;10652;50.306;8.570;2022-09-09T08:54:47;97564.31;;;20.80;70.42
20987;BME280;10652;50.306;8.570;2022-09-09T08:58:55;97550.19;;;20.89;71.08
20987;BME280;10652;50.306;8.570;2022-09-09T09:03:22;97561.25;;;20.94;69.63
20987;BME280;10652;50.306;8.570;2022-09-09T09:07:39;97559.66;;;20.72;69.57
20987;BME280;10652;50.306;8.570;2022-09-09T09:11:59;97562.06;;;20.45;71.38
20987;BME280;10652;50.306;8.570;2022-09-09T09:16:17;97553.53;;;20.21;71.87
20987;BME280;10652;50.306;8.570;2022-09-09T09:20:36;97565.66;;;19.93;74.47
20987;BME280;10652;50.306;8.570;2022-09-09T09:25:08;97562.34;;;19.80;76.19
20987;BME280;10652;50.306;8.570;2022-09-09T09:29:18;97563.13;;;19.91;76.84
20987;BME280;10652;50.306;8.570;2022-09-09T09:37:43;97561.59;;;20.30;76.42
20987;BME280;10652;50.306;8.570;2022-09-09T09:42:13;97551.00;;;20.50;76.02
20987;BME280;10652;50.306;8.570;2022-09-09T09:46:23;97543.94;;;20.60;74.35
20987;BME280;10652;50.306;8.570;2022-09-09T09:50:28;97544.81;;;20.70;72.83
20987;BME280;10652;50.306;8.570;2022-09-09T09:54:38;97536.22;;;20.57;72.15
20987;BME280;10652;50.306;8.570;2022-09-09T10:02:47;97528.94;;;20.59;69.73
20987;BME280;10652;50.306;8.570;2022-09-09T10:06:55;97532.59;;;20.67;68.27
20987;BME280;10652;50.306;8.570;2022-09-09T10:11:05;97529.72;;;20.80;67.78
20987;BME280;10652;50.306;8.570;2022-09-09T10:19:42;97513.34;;;20.84;65.79
20987;BME280;10652;50.306;8.570;2022-09-09T10:32:53;97496.59;;;21.42;60.04
20987;BME280;10652;50.306;8.570;2022-09-09T10:36:59;97477.66;;;21.54;59.00
20987;BME280;10652;50.306;8.570;2022-09-09T10:45:38;97489.69;;;21.87;56.04
20987;BME280;10652;50.306;8.570;2022-09-09T10:54:05;97479.75;;;22.26;54.41
20987;BME280;10652;50.306;8.570;2022-09-09T10:58:19;97483.16;;;22.55;53.28
20987;BME280;10652;50.306;8.570;2022-09-09T11:02:30;97477.09;;;22.90;52.47
20987;BME280;10652;50.306;8.570;2022-09-09T11:06:39;97487.56;;;23.37;50.78
20987;BME280;10652;50.306;8.570;2022-09-09T11:10:46;97474.75;;;23.40;50.25
20987;BME280;10652;50.306;8.570;2022-09-09T11:14:56;97477.22;;;23.34;49.15
20987;BME280;10652;50.306;8.570;2022-09-09T11:23:22;97486.69;;;23.46;49.37
20987;BME280;10652;50.306;8.570;2022-09-09T11:27:37;97485.72;;;23.47;48.79
20987;BME280;10652;50.306;8.570;2022-09-09T11:31:46;97488.41;;;23.37;49.19
20987;BME280;10652;50.306;8.570;2022-09-09T11:40:19;97474.94;;;23.21;47.58
20987;BME280;10652;50.306;8.570;2022-09-09T11:44:29;97483.91;;;23.02;49.09
20987;BME280;10652;50.306;8.570;2022-09-09T11:48:38;97487.13;;;23.06;48.16
20987;BME280;10652;50.306;8.570;2022-09-09T11:52:43;97488.78;;;22.89;48.66
20987;BME280;10652;50.306;8.570;2022-09-09T11:56:47;97479.94;;;22.89;49.42
20987;BME280;10652;50.306;8.570;2022-09-09T12:00:49;97487.56;;;23.01;49.12
20987;BME280;10652;50.306;8.570;2022-09-09T12:05:04;97506.56;;;22.98;48.66
20987;BME280;10652;50.306;8.570;2022-09-09T12:09:39;97505.81;;;23.06;49.33
20987;BME280;10652;50.306;8.570;2022-09-09T12:13:54;97492.53;;;23.14;48.42
20987;BME280;10652;50.306;8.570;2022-09-09T12:17:58;97497.88;;;23.14;48.05
20987;BME280;10652;50.306;8.570;2022-09-09T12:22:25;97505.03;;;23.14;48.24
20987;BME280;10652;50.306;8.570;2022-09-09T12:26:33;97505.03;;;23.14;48.07
20987;BME280;10652;50.306;8.570;2022-09-09T12:30:51;97499.03;;;23.12;48.24
20987;BME280;10652;50.306;8.570;2022-09-09T12:35:10;97504.72;;;22.99;48.17
20987;BME280;10652;50.306;8.570;2022-09-09T12:39:30;97492.72;;;22.85;50.98
20987;BME280;10652;50.306;8.570;2022-09-09T12:43:35;97479.53;;;22.84;51.24
20987;BME280;10652;50.306;8.570;2022-09-09T12:47:42;97473.94;;;22.77;50.55
20987;BME280;10652;50.306;8.570;2022-09-09T12:51:45;97476.38;;;22.71;50.79
20987;BME280;10652;50.306;8.570;2022-09-09T12:56:37;97475.75;;;22.49;51.21
20987;BME280;10652;50.306;8.570;2022-09-09T13:00:16;97483.75;;;22.49;52.31
20987;BME280;10652;50.306;8.570;2022-09-09T13:04:20;97461.47;;;22.68;51.48
20987;BME280;10652;50.306;8.570;2022-09-09T13:08:22;97460.53;;;22.59;51.43
20987;BME280;10652;50.306;8.570;2022-09-09T13:12:24;97456.72;;;22.62;50.94
20987;BME280;10652;50.306;8.570;2022-09-09T13:16:29;97459.59;;;22.78;51.15
20987;BME280;10652;50.306;8.570;2022-09-09T13:20:46;97444.13;;;22.99;49.18
20987;BME280;10652;50.306;8.570;2022-09-09T13:24:59;97452.66;;;22.85;50.09
20987;BME280;10652;50.306;8.570;2022-09-09T13:29:18;97449.47;;;22.82;50.32
20987;BME280;10652;50.306;8.570;2022-09-09T13:33:22;97453.69;;;23.20;50.66
20987;BME280;10652;50.306;8.570;2022-09-09T13:37:34;97441.03;;;23.57;49.18
20987;BME280;10652;50.306;8.570;2022-09-09T13:41:45;97439.31;;;24.08;48.62
20987;BME280;10652;50.306;8.570;2022-09-09T13:45:55;97430.31;;;24.09;48.92
20987;BME280;10652;50.306;8.570;2022-09-09T13:49:58;97437.97;;;24.04;47.68
20987;BME280;10652;50.306;8.570;2022-09-09T13:54:00;97435.22;;;23.87;49.61
20987;BME280;10652;50.306;8.570;2022-09-09T13:58:03;97437.41;;;23.66;50.72
20987;BME280;10652;50.306;8.570;2022-09-09T14:02:07;97437.63;;;23.73;48.59
20987;BME280;10652;50.306;8.570;2022-09-09T14:06:10;97440.50;;;23.79;48.20
20987;BME280;10652;50.306;8.570;2022-09-09T14:10:12;97437.19;;;23.85;47.02
20987;BME280;10652;50.306;8.570;2022-09-09T14:14:14;97456.75;;;23.60;48.49
20987;BME280;10652;50.306;8.570;2022-09-09T14:18:16;97466.53;;;23.34;49.37
20987;BME280;10652;50.306;8.570;2022-09-09T14:22:18;97461.47;;;22.95;49.11
20987;BME280;10652;50.306;8.570;2022-09-09T14:26:21;97462.34;;;22.59;50.43
20987;BME280;10652;50.306;8.570;2022-09-09T14:30:23;97469.91;;;22.36;51.31
20987;BME280;10652;50.306;8.570;2022-09-09T14:34:25;97466.06;;;22.21;52.00
20987;BME280;10652;50.306;8.570;2022-09-09T14:38:33;97467.16;;;22.18;52.26
20987;BME280;10652;50.306;8.570;2022-09-09T14:42:35;97465.22;;;22.21;52.86
20987;BME280;10652;50.306;8.570;2022-09-09T14:46:37;97464.09;;;22.13;52.83
20987;BME280;10652;50.306;8.570;2022-09-09T14:50:39;97462.59;;;22.01;53.52
20987;BME280;10652;50.306;8.570;2022-09-09T14:54:42;97466.66;;;21.86;54.01
20987;BME280;10652;50.306;8.570;2022-09-09T14:58:44;97464.00;;;21.86;54.25
20987;BME280;10652;50.306;8.570;2022-09-09T15:02:52;97460.38;;;21.87;54.65
20987;BME280;10652;50.306;8.570;2022-09-09T15:06:54;97449.16;;;21.93;54.91
20987;BME280;10652;50.306;8.570;2022-09-09T15:11:00;97446.28;;;22.14;55.06
20987;BME280;10652;50.306;8.570;2022-09-09T15:15:03;97447.63;;;22.55;54.11
20987;BME280;10652;50.306;8.570;2022-09-09T15:19:05;97453.06;;;22.90;52.12
20987;BME280;10652;50.306;8.570;2022-09-09T15:23:07;97450.03;;;23.03;52.20
20987;BME280;10652;50.306;8.570;2022-09-09T15:27:10;97458.59;;;23.07;52.03
20987;BME280;10652;50.306;8.570;2022-09-09T15:31:15;97466.78;;;22.95;52.41
20987;BME280;10652;50.306;8.570;2022-09-09T15:35:19;97474.56;;;22.61;52.54
20987;BME280;10652;50.306;8.570;2022-09-09T15:39:21;97486.44;;;22.40;53.78
20987;BME280;10652;50.306;8.570;2022-09-09T15:43:23;97480.22;;;22.22;54.74
20987;BME280;10652;50.306;8.570;2022-09-09T15:47:25;97475.38;;;21.88;54.82
20987;BME280;10652;50.306;8.570;2022-09-09T15:51:28;97472.34;;;21.54;55.64
20987;BME280;10652;50.306;8.570;2022-09-09T15:55:46;97468.03;;;21.24;57.45
20987;BME280;10652;50.306;8.570;2022-09-09T15:59:48;97463.91;;;21.11;58.25
20987;BME280;10652;50.306;8.570;2022-09-09T16:03:50;97471.56;;;20.85;58.61
20987;BME280;10652;50.306;8.570;2022-09-09T16:07:52;97471.56;;;20.66;59.78
20987;BME280;10652;50.306;8.570;2022-09-09T16:11:59;97479.06;;;20.51;61.25
20987;BME280;10652;50.306;8.570;2022-09-09T16:16:03;97483.25;;;20.44;61.26
20987;BME280;10652;50.306;8.570;2022-09-09T16:20:06;97479.25;;;20.29;62.45
20987;BME280;10652;50.306;8.570;2022-09-09T16:24:12;97477.94;;;20.23;63.62
20987;BME280;10652;50.306;8.570;2022-09-09T16:28:15;97479.19;;;20.19;63.50
20987;BME280;10652;50.306;8.570;2022-09-09T16:32:17;97478.47;;;20.17;64.96
20987;BME280;10652;50.306;8.570;2022-09-09T16:36:21;97470.50;;;20.17;65.63
20987;BME280;10652;50.306;8.570;2022-09-09T16:40:23;97474.75;;;19.99;67.93
20987;BME280;10652;50.306;8.570;2022-09-09T16:44:25;97475.81;;;19.87;69.61
20987;BME280;10652;50.306;8.570;2022-09-09T16:48:32;97474.31;;;19.73;71.89
20987;BME280;10652;50.306;8.570;2022-09-09T16:52:34;97483.66;;;19.68;73.14
20987;BME280;10652;50.306;8.570;2022-09-09T16:56:39;97493.81;;;19.63;73.87
20987;BME280;10652;50.306;8.570;2022-09-09T17:00:44;97502.44;;;19.55;74.67
20987;BME280;10652;50.306;8.570;2022-09-09T17:04:48;97499.53;;;19.58;75.45
20987;BME280;10652;50.306;8.570;2022-09-09T17:08:54;97501.38;;;19.58;76.04
20987;BME280;10652;50.306;8.570;2022-09-09T17:12:56;97501.69;;;19.64;75.33
20987;BME280;10652;50.306;8.570;2022-09-09T17:16:58;97507.44;;;19.69;74.04
20987;BME280;10652;50.306;8.570;2022-09-09T17:21:24;97514.66;;;19.58;73.90
20987;BME280;10652;50.306;8.570;2022-09-09T17:25:27;97518.25;;;19.57;74.40
20987;BME280;10652;50.306;8.570;2022-09-09T17:29:29;97515.59;;;19.57;74.26
20987;BME280;10652;50.306;8.570;2022-09-09T17:33:33;97529.59;;;19.59;73.95
20987;BME280;10652;50.306;8.570;2022-09-09T17:37:35;97526.22;;;19.57;74.09
20987;BME280;10652;50.306;8.570;2022-09-09T17:41:38;97527.47;;;19.52;74.52
20987;BME280;10652;50.306;8.570;2022-09-09T17:45:41;97525.78;;;19.40;75.03
20987;BME280;10652;50.306;8.570;2022-09-09T17:49:43;97527.44;;;19.21;76.08
20987;BME280;10652;50.306;8.570;2022-09-09T17:53:47;97532.50;;;19.13;77.23
20987;BME280;10652;50.306;8.570;2022-09-09T17:57:50;97540.03;;;19.07;77.33
20987;BME280;10652;50.306;8.570;2022-09-09T18:01:52;97533.19;;;18.94;76.85
20987;BME280;10652;50.306;8.570;2022-09-09T18:06:00;97529.44;;;18.85;76.74
20987;BME280;10652;50.306;8.570;2022-09-09T18:10:02;97528.03;;;18.70;76.24
20987;BME280;10652;50.306;8.570;2022-09-09T18:14:04;97528.19;;;18.57;76.47
20987;BME280;10652;50.306;8.570;2022-09-09T18:18:06;97532.47;;;18.47;77.18
20987;BME280;10652;50.306;8.570;2022-09-09T18:22:09;97533.44;;;18.35;77.30
20987;BME280;10652;50.306;8.570;2022-09-09T18:26:13;97520.09;;;18.26;77.64
20987;BME280;10652;50.306;8.570;2022-09-09T18:30:15;97523.91;;;18.10;78.01
20987;BME280;10652;50.306;8.570;2022-09-09T18:34:19;97533.41;;;18.02;78.33
20987;BME280;10652;50.306;8.570;2022-09-09T18:38:22;97540.03;;;17.96;78.41
20987;BME280;10652;50.306;8.570;2022-09-09T18:42:26;97553.63;;;17.92;78.72
20987;BME280;10652;50.306;8.570;2022-09-09T18:46:30;97555.31;;;17.93;78.97
20987;BME280;10652;50.306;8.570;2022-09-09T18:50:33;97564.22;;;17.92;79.73
20987;BME280;10652;50.306;8.570;2022-09-09T18:54:35;97563.28;;;17.93;80.92
20987;BME280;10652;50.306;8.570;2022-09-09T18:58:38;97575.78;;;17.91;82.16
20987;BME280;10652;50.306;8.570;2022-09-09T19:02:40;97580.81;;;17.83;82.76
20987;BME280;10652;50.306;8.570;2022-09-09T19:06:45;97581.66;;;17.83;83.55
20987;BME280;10652;50.306;8.570;2022-09-09T19:10:48;97575.88;;;18.46;87.84
20987;BME280;10652;50.306;8.570;2022-09-09T19:14:50;97582.28;;;18.66;78.14
20987;BME280;10652;50.306;8.570;2022-09-09T19:18:52;97570.69;;;18.34;74.67
20987;BME280;10652;50.306;8.570;2022-09-09T19:22:55;97580.25;;;18.01;74.86
20987;BME280;10652;50.306;8.570;2022-09-09T19:27:00;97588.66;;;17.84;75.39
20987;BME280;10652;50.306;8.570;2022-09-09T19:31:08;97597.16;;;17.76;76.21
20987;BME280;10652;50.306;8.570;2022-09-09T19:35:10;97590.13;;;17.64;76.82
20987;BME280;10652;50.306;8.570;2022-09-09T19:39:13;97590.78;;;17.55;77.51
20987;BME280;10652;50.306;8.570;2022-09-09T19:43:16;97596.53;;;17.49;78.49
20987;BME280;10652;50.306;8.570;2022-09-09T19:47:18;97593.16;;;17.47;79.58
20987;BME280;10652;50.306;8.570;2022-09-09T19:51:21;97600.72;;;17.41;80.31
20987;BME280;10652;50.306;8.570;2022-09-09T19:55:23;97591.22;;;17.38;81.14
20987;BME280;10652;50.306;8.570;2022-09-09T19:59:29;97579.84;;;17.25;80.64
20987;BME280;10652;50.306;8.570;2022-09-09T20:03:31;97584.94;;;17.15;81.16
20987;BME280;10652;50.306;8.570;2022-09-09T20:07:34;97577.56;;;17.08;81.99
20987;BME280;10652;50.306;8.570;2022-09-09T20:11:36;97585.00;;;17.03;81.95
20987;BME280;10652;50.306;8.570;2022-09-09T20:15:40;97581.72;;;16.99;81.68
20987;BME280;10652;50.306;8.570;2022-09-09T20:19:42;97574.94;;;16.95;80.87
20987;BME280;10652;50.306;8.570;2022-09-09T20:23:44;97574.44;;;16.90;80.16
20987;BME280;10652;50.306;8.570;2022-09-09T20:27:46;97566.97;;;16.84;80.20
20987;BME280;10652;50.306;8.570;2022-09-09T20:31:48;97576.69;;;16.83;80.18
20987;BME280;10652;50.306;8.570;2022-09-09T20:35:50;97580.38;;;16.94;81.94
20987;BME280;10652;50.306;8.570;2022-09-09T20:39:54;97584.53;;;17.09;81.49
20987;BME280;10652;50.306;8.570;2022-09-09T20:43:59;97576.41;;;17.12;78.90
20987;BME280;10652;50.306;8.570;2022-09-09T20:48:03;97581.00;;;16.97;79.59
20987;BME280;10652;50.306;8.570;2022-09-09T20:52:05;97581.22;;;16.81;80.95
20987;BME280;10652;50.306;8.570;2022-09-09T20:56:08;97580.41;;;16.68;82.12
20987;BME280;10652;50.306;8.570;2022-09-09T21:00:10;97571.97;;;16.63;83.48
20987;BME280;10652;50.306;8.570;2022-09-09T21:04:14;97581.25;;;16.56;84.31
20987;BME280;10652;50.306;8.570;2022-09-09T21:08:17;97591.31;;;16.51;85.41
20987;BME280;10652;50.306;8.570;2022-09-09T21:12:19;97589.94;;;16.45;86.11
20987;BME280;10652;50.306;8.570;2022-09-09T21:16:21;97589.53;;;16.39;87.13
20987;BME280;10652;50.306;8.570;2022-09-09T21:20:23;97594.47;;;16.31;88.80
20987;BME280;10652;50.306;8.570;2022-09-09T21:24:25;97609.19;;;16.22;89.57
20987;BME280;10652;50.306;8.570;2022-09-09T21:28:27;97602.72;;;16.14;90.87
20987;BME280;10652;50.306;8.570;2022-09-09T21:32:29;97603.34;;;16.05;91.57
20987;BME280;10652;50.306;8.570;2022-09-09T21:36:31;97601.16;;;15.98;92.55
20987;BME280;10652;50.306;8.570;2022-09-09T21:40:38;97613.06;;;15.91;93.06
20987;BME280;10652;50.306;8.570;2022-09-09T21:44:41;97608.19;;;15.85;93.78
20987;BME280;10652;50.306;8.570;2022-09-09T21:48:43;97604.91;;;15.82;94.61
20987;BME280;10652;50.306;8.570;2022-09-09T21:52:45;97598.38;;;15.75;95.24
20987;BME280;10652;50.306;8.570;2022-09-09T21:56:50;97618.63;;;15.74;96.10
20987;BME280;10652;50.306;8.570;2022-09-09T22:00:55;97621.38;;;15.73;96.39
20987;BME280;10652;50.306;8.570;2022-09-09T22:04:57;97625.16;;;15.69;96.51
20987;BME280;10652;50.306;8.570;2022-09-09T22:08:59;97619.03;;;15.68;96.87
20987;BME280;10652;50.306;8.570;2022-09-09T22:13:02;97620.72;;;15.69;97.49
20987;BME280;10652;50.306;8.570;2022-09-09T22:17:04;97630.78;;;15.77;97.80
20987;BME280;10652;50.306;8.570;2022-09-09T22:21:16;97625.72;;;15.86;97.42
20987;BME280;10652;50.306;8.570;2022-09-09T22:25:19;97617.63;;;15.89;97.10
20987;BME280;10652;50.306;8.570;2022-09-09T22:29:21;97624.38;;;15.93;96.87
20987;BME280;10652;50.306;8.570;2022-09-09T22:33:24;97621.31;;;15.99;97.06
20987;BME280;10652;50.306;8.570;2022-09-09T22:37:26;97614.78;;;16.05;96.74
20987;BME280;10652;50.306;8.570;2022-09-09T22:41:28;97617.19;;;16.08;96.25
20987;BME280;10652;50.306;8.570;2022-09-09T22:45:31;97618.25;;;16.06;96.03